Time;durP1;ratioP1;P1;durP2;ratioP2;P2;SDS_P1;SDS_P2;PMS_P1;PMS_P2;Temp;Humidity;BMP_temperature;BMP_pressure;BME280_temperature;BME280_humidity;BME280_pressure;Samples;Min_cycle;Max_cycle;Signal;HPM_P1;HPM_P2
2022/07/05 00:01:54;;;;;;;;;2.00;1.00;;;;;23.69;38.32;101769.03;4921178;28;45308;-55
2022/07/05 00:04:19;;;;;;;;;1.00;1.00;;;;;23.68;38.58;101769.13;4921522;28;45188;-57
2022/07/05 00:09:29;;;;;;;;;1.00;1.00;;;;;23.63;38.14;101764.09;4921299;28;45700;-55
2022/07/05 00:11:54;;;;;;;;;1.00;1.00;;;;;23.63;37.92;101764.09;4905171;28;45423;-56
2022/07/05 00:14:20;;;;;;;;;1.25;1.25;;;;;23.62;38.53;101765.03;4922412;28;45225;-52
2022/07/05 00:16:45;;;;;;;;;1.00;1.00;;;;;23.62;38.58;101767.69;4921789;28;45285;-57
2022/07/05 00:19:10;;;;;;;;;2.00;2.00;;;;;23.61;38.47;101769.44;4929729;28;45209;-55
2022/07/05 00:21:36;;;;;;;;;0.75;0.00;;;;;23.60;38.23;101772.19;4937132;28;45379;-54
2022/07/05 00:24:01;;;;;;;;;1.00;1.00;;;;;23.61;38.27;101771.25;4933904;28;45410;-48
2022/07/05 00:26:26;;;;;;;;;1.50;1.50;;;;;23.60;38.32;101773.03;4939869;28;46295;-46
2022/07/05 00:28:52;;;;;;;;;1.00;1.00;;;;;23.59;38.32;101773.13;4939353;28;44800;-47
2022/07/05 00:31:17;;;;;;;;;1.00;1.00;;;;;23.59;38.30;101767.81;4940707;28;55880;-54
2022/07/05 00:33:43;;;;;;;;;2.50;1.50;;;;;23.59;38.38;101775.78;4937129;28;45909;-50
2022/07/05 00:36:08;;;;;;;;;1.25;1.00;;;;;23.58;38.33;101776.69;4944013;28;44967;-52
2022/07/05 00:38:33;;;;;;;;;1.00;1.00;;;;;23.56;38.22;101779.44;4934438;28;45488;-51
2022/07/05 00:40:59;;;;;;;;;1.50;1.00;;;;;23.56;38.33;101779.44;4922957;28;45407;-51
2022/07/05 00:43:24;;;;;;;;;1.00;1.00;;;;;23.53;38.48;101774.31;4921860;28;45521;-53
2022/07/05 00:45:49;;;;;;;;;2.00;0.25;;;;;23.55;38.41;101771.56;4927107;28;47255;-56
2022/07/05 00:48:15;;;;;;;;;1.00;1.00;;;;;23.53;38.11;101769.00;4943017;28;45507;-49
2022/07/05 00:50:43;;;;;;;;;0.75;0.75;;;;;23.53;38.49;101768.16;4927579;28;45355;-52
2022/07/05 00:53:08;;;;;;;;;1.00;1.00;;;;;23.53;38.59;101773.47;4921881;28;45419;-52
2022/07/05 00:55:34;;;;;;;;;1.00;1.00;;;;;23.52;38.49;101777.03;4920485;28;46318;-49
2022/07/05 00:58:00;;;;;;;;;1.00;1.00;;;;;23.51;38.65;101780.63;4920395;28;45356;-51
2022/07/05 01:00:26;;;;;;;;;1.00;1.00;;;;;23.50;38.57;101774.47;4919957;28;45236;-54
2022/07/05 01:02:51;;;;;;;;;2.00;2.00;;;;;23.50;38.80;101776.25;4921146;28;45500;-51
2022/07/05 01:05:17;;;;;;;;;2.00;1.00;;;;;23.50;38.34;101779.75;4921618;28;46915;-56
2022/07/05 01:07:43;;;;;;;;;1.00;1.00;;;;;23.50;38.63;101776.25;4920235;28;45864;-52
2022/07/05 01:10:09;;;;;;;;;1.50;1.00;;;;;23.49;38.51;101777.19;4920655;28;45424;-49
2022/07/05 01:12:37;;;;;;;;;1.00;1.00;;;;;23.47;38.15;101772.00;4920714;28;45618;-51
2022/07/05 01:15:03;;;;;;;;;0.25;0.00;;;;;23.45;38.55;101776.50;4919765;28;45337;-50
2022/07/05 01:17:29;;;;;;;;;0.25;0.25;;;;;23.43;38.75;101768.63;4919997;28;45348;-52
2022/07/05 01:19:55;;;;;;;;;1.00;1.00;;;;;23.42;38.29;101766.09;4919803;28;45324;-51
2022/07/05 01:22:24;;;;;;;;;1.50;1.50;;;;;23.42;38.05;101774.03;4920255;28;45582;-54
2022/07/05 01:24:51;;;;;;;;;1.00;1.00;;;;;23.39;38.57;101764.47;4919685;28;46636;-55
2022/07/05 01:27:18;;;;;;;;;1.00;1.00;;;;;23.39;38.30;101763.59;4920039;28;45605;-51
2022/07/05 01:29:43;;;;;;;;;2.25;1.00;;;;;23.38;38.71;101761.88;4903799;28;45221;-54
2022/07/05 01:32:10;;;;;;;;;1.75;1.00;;;;;23.38;38.44;101762.75;4921338;28;45598;-51
2022/07/05 01:34:40;;;;;;;;;2.50;2.00;;;;;23.39;38.18;101759.16;4920019;28;45352;-52
2022/07/05 01:37:06;;;;;;;;;1.00;1.00;;;;;23.38;38.62;101765.41;4919446;28;45415;-50
2022/07/05 01:39:32;;;;;;;;;1.00;1.00;;;;;23.38;38.90;101765.41;4920366;28;45246;-54
2022/07/05 01:41:57;;;;;;;;;3.75;1.25;;;;;23.38;38.88;101764.53;4919833;28;45473;-53
2022/07/05 01:44:23;;;;;;;;;1.00;1.00;;;;;23.35;38.76;101762.91;4922688;28;45291;-51
2022/07/05 01:46:55;;;;;;;;;1.00;1.00;;;;;23.33;38.67;101761.28;4937909;28;44709;-54
2022/07/05 01:49:23;;;;;;;;;1.00;1.00;;;;;23.30;38.34;101762.31;4923207;28;45391;-52
2022/07/05 01:51:54;;;;;;;;;1.50;1.00;;;;;23.26;38.63;101760.75;4903193;28;45260;-54
2022/07/05 01:54:19;;;;;;;;;1.00;1.00;;;;;23.23;38.76;101760.91;4921319;28;45392;-48
2022/07/05 01:56:45;;;;;;;;;1.50;1.50;;;;;23.19;38.68;101765.50;4921046;28;45417;-52
2022/07/05 01:59:11;;;;;;;;;0.75;0.75;;;;;23.16;38.82;101766.50;4920495;28;45321;-49
2022/07/05 02:01:39;;;;;;;;;1.00;1.00;;;;;23.15;38.96;101759.50;4920281;28;45443;-52
2022/07/05 02:04:06;;;;;;;;;1.00;1.00;;;;;23.12;38.86;101770.22;4919547;28;47017;-52
2022/07/05 02:06:33;;;;;;;;;3.00;1.50;;;;;23.09;38.67;101767.75;4919993;28;45822;-49
2022/07/05 02:09:00;;;;;;;;;2.00;2.00;;;;;23.08;38.80;101766.03;4919798;28;45446;-51
2022/07/05 02:11:25;;;;;;;;;3.00;1.00;;;;;23.07;39.00;101758.16;4918967;28;45497;-54
2022/07/05 02:13:51;;;;;;;;;1.00;0.25;;;;;23.04;38.92;101767.13;4918623;28;46112;-52
2022/07/05 02:16:16;;;;;;;;;2.50;1.50;;;;;23.02;39.06;101763.69;4920448;28;45454;-52
2022/07/05 02:18:41;;;;;;;;;2.00;2.00;;;;;23.01;39.09;101759.34;4920172;28;45201;-46
2022/07/05 02:21:07;;;;;;;;;4.00;1.00;;;;;22.98;39.91;101757.72;4924050;28;45283;-50
2022/07/05 02:23:32;;;;;;;;;2.00;2.00;;;;;22.96;39.67;101761.38;4921103;28;51729;-51
2022/07/05 02:25:57;;;;;;;;;1.00;1.00;;;;;22.95;40.09;101763.16;4937644;28;52695;-51
2022/07/05 02:28:23;;;;;;;;;1.00;1.00;;;;;22.93;39.86;101758.88;4930313;28;50875;-53
2022/07/05 02:30:48;;;;;;;;;1.00;1.00;;;;;22.91;40.21;101766.03;4920103;28;45360;-57
2022/07/05 02:33:13;;;;;;;;;3.25;2.00;;;;;22.89;40.41;101767.88;4919218;28;46899;-52
2022/07/05 02:35:39;;;;;;;;;2.00;2.00;;;;;22.87;40.16;101762.69;4919043;28;45198;-54
2022/07/05 02:38:04;;;;;;;;;1.00;1.00;;;;;22.84;40.25;101769.00;4919140;28;45245;-52
2022/07/05 02:40:30;;;;;;;;;1.00;1.00;;;;;22.82;40.30;101757.66;4919651;28;45277;-54
2022/07/05 02:42:55;;;;;;;;;2.00;2.00;;;;;22.81;40.52;101758.56;4918625;28;45270;-55
2022/07/05 02:45:20;;;;;;;;;1.00;1.00;;;;;22.80;40.54;101758.66;4919087;28;45290;-58
2022/07/05 02:47:46;;;;;;;;;3.00;2.00;;;;;22.78;40.76;101757.88;4902710;28;45485;-54
2022/07/05 02:50:11;;;;;;;;;1.00;1.00;;;;;22.74;40.78;101757.19;4920459;28;45430;-55
2022/07/05 02:52:37;;;;;;;;;1.00;1.00;;;;;22.75;40.86;101750.97;4925359;28;46145;-54
2022/07/05 02:55:03;;;;;;;;;1.25;1.00;;;;;22.74;41.20;101751.03;4920497;28;45378;-56
2022/07/05 02:57:29;;;;;;;;;1.00;1.00;;;;;22.74;41.02;101756.31;4933916;28;45699;-54
2022/07/05 02:59:56;;;;;;;;;2.00;2.00;;;;;22.73;40.96;101751.97;4937397;28;44887;-53
2022/07/05 03:02:22;;;;;;;;;1.75;1.00;;;;;22.72;41.04;101755.53;4920576;28;46408;-52
2022/07/05 03:04:47;;;;;;;;;2.75;2.25;;;;;22.71;41.11;101757.31;4918830;28;45330;-55
2022/07/05 03:07:13;;;;;;;;;1.50;1.50;;;;;22.68;41.25;101757.47;4919820;28;45395;-50
2022/07/05 03:09:38;;;;;;;;;1.75;1.00;;;;;22.67;41.36;101759.28;4919653;28;45660;-54
2022/07/05 03:12:04;;;;;;;;;1.50;1.50;;;;;22.66;41.23;101759.34;4919057;28;45311;-49
2022/07/05 03:14:29;;;;;;;;;3.00;1.50;;;;;22.63;41.37;101757.69;4919257;28;45265;-48
2022/07/05 03:16:55;;;;;;;;;1.50;1.50;;;;;22.65;41.52;101758.50;4918674;28;45257;-52
2022/07/05 03:19:20;;;;;;;;;4.75;1.75;;;;;22.64;41.44;101754.13;4919503;28;45550;-49
2022/07/05 03:21:45;;;;;;;;;3.50;2.00;;;;;22.63;41.38;101762.16;4919005;28;46983;-55
2022/07/05 03:24:11;;;;;;;;;2.00;2.00;;;;;22.61;41.54;101759.56;4922394;28;45241;-54
2022/07/05 03:26:36;;;;;;;;;2.00;2.00;;;;;22.60;41.53;101762.28;4922347;28;45228;-52
2022/07/05 03:29:02;;;;;;;;;2.25;2.00;;;;;22.60;41.75;101757.00;4922294;28;45384;-55
2022/07/05 03:31:27;;;;;;;;;1.25;1.00;;;;;22.58;41.74;101764.16;4904978;28;46036;-57
2022/07/05 03:33:52;;;;;;;;;0.50;0.00;;;;;22.57;41.68;101763.31;4921967;28;45477;-53
2022/07/05 03:36:18;;;;;;;;;2.00;2.00;;;;;22.57;41.70;101767.72;4921906;28;45379;-54
2022/07/05 03:38:43;;;;;;;;;2.00;2.00;;;;;22.54;41.88;101777.50;4922948;28;45427;-54
2022/07/05 03:41:08;;;;;;;;;2.00;2.00;;;;;22.51;41.91;101775.03;4922935;28;46330;-56
2022/07/05 03:43:34;;;;;;;;;2.25;2.00;;;;;22.50;42.07;101775.97;4926570;28;45387;-56
2022/07/05 03:45:59;;;;;;;;;2.00;2.00;;;;;22.49;42.11;101773.41;4924423;28;45382;-54
2022/07/05 03:48:24;;;;;;;;;6.25;2.25;;;;;22.48;41.91;101784.91;4923145;28;45581;-56
2022/07/05 03:50:50;;;;;;;;;2.75;2.75;;;;;22.46;42.10;101779.66;4936220;28;46466;-55
2022/07/05 03:53:15;;;;;;;;;3.25;2.50;;;;;22.44;42.12;101781.53;4943672;28;45154;-53
2022/07/05 03:55:40;;;;;;;;;5.75;1.75;;;;;22.44;42.04;101792.09;4923207;28;45271;-56
2022/07/05 03:58:06;;;;;;;;;1.25;1.25;;;;;22.44;42.35;101794.72;4921984;28;45665;-60
2022/07/05 04:00:32;;;;;;;;;3.50;2.00;;;;;22.44;42.34;101793.88;4921592;28;45375;-57
2022/07/05 04:02:57;;;;;;;;;2.50;2.50;;;;;22.43;42.31;101800.09;4921780;28;45436;-57
2022/07/05 04:05:22;;;;;;;;;3.00;2.75;;;;;22.42;42.66;101791.34;4922715;28;45296;-58
2022/07/05 04:07:49;;;;;;;;;3.00;2.00;;;;;22.40;42.44;101795.78;4921993;28;45348;-57
2022/07/05 04:10:14;;;;;;;;;2.00;1.00;;;;;22.38;42.26;101790.56;4924976;28;46775;-52
2022/07/05 04:12:40;;;;;;;;;2.00;2.00;;;;;22.37;42.56;101794.16;4929115;28;45221;-57
2022/07/05 04:15:05;;;;;;;;;2.50;2.50;;;;;22.37;42.57;101795.94;4923897;28;45225;-58
2022/07/05 04:17:31;;;;;;;;;3.00;2.00;;;;;22.36;42.46;101796.88;4923393;28;45407;-58
2022/07/05 04:19:56;;;;;;;;;3.67;2.00;;;;;22.35;42.44;101797.78;4933484;28;60758;-51
2022/07/05 04:22:21;;;;;;;;;2.00;2.00;;;;;22.34;42.68;101807.50;4942746;28;60122;-49
2022/07/05 04:27:30;;;;;;;;;6.50;3.00;;;;;22.32;42.56;101814.66;4931987;28;44736;-55
2022/07/05 04:29:56;;;;;;;;;4.00;2.00;;;;;22.32;42.75;101812.00;4930295;28;45210;-49
2022/07/05 04:32:21;;;;;;;;;3.75;2.00;;;;;22.32;42.73;101812.00;4924723;28;45290;-57
2022/07/05 04:34:46;;;;;;;;;2.25;1.00;;;;;22.31;42.81;101810.28;4920759;28;45454;-52
2022/07/05 04:37:12;;;;;;;;;2.75;2.00;;;;;22.31;42.86;101814.72;4921852;28;45596;-48
2022/07/05 04:39:37;;;;;;;;;4.50;3.25;;;;;22.29;43.00;101806.03;4921746;28;46312;-55
2022/07/05 04:42:02;;;;;;;;;3.00;1.00;;;;;22.28;43.07;101812.22;4920844;28;54610;-57
2022/07/05 04:44:28;;;;;;;;;2.50;2.50;;;;;22.28;43.07;101814.88;4920965;28;45354;-49
2022/07/05 04:46:53;;;;;;;;;3.25;2.00;;;;;22.27;43.02;101813.16;4923422;28;45361;-55
2022/07/05 04:49:18;;;;;;;;;2.00;2.00;;;;;22.26;43.04;101814.06;4921013;28;51852;-53
2022/07/05 04:51:43;;;;;;;;;3.50;2.75;;;;;22.25;43.13;101813.25;4923602;28;45328;-50
2022/07/05 04:54:09;;;;;;;;;3.00;3.00;;;;;22.26;43.09;101814.94;4939930;28;51104;-50
2022/07/05 04:56:34;;;;;;;;;5.25;3.00;;;;;22.24;43.12;101815.00;4926888;28;45306;-54
2022/07/05 04:58:59;;;;;;;;;3.00;3.00;;;;;22.24;43.24;101820.28;4924226;28;46085;-50
2022/07/05 05:01:25;;;;;;;;;3.00;3.00;;;;;22.24;43.13;101815.00;4920203;28;62441;-57
2022/07/05 05:03:50;;;;;;;;;3.50;2.00;;;;;22.24;43.32;101812.38;4921310;28;45513;-54
2022/07/05 05:06:15;;;;;;;;;4.00;2.00;;;;;22.25;43.43;101821.16;4921194;28;45680;-58
2022/07/05 05:08:41;;;;;;;;;2.25;2.25;;;;;22.21;43.56;101815.13;4939684;28;45187;-54
2022/07/05 05:11:07;;;;;;;;;5.25;3.25;;;;;22.21;43.38;101820.41;4936715;28;44665;-51
2022/07/05 05:13:32;;;;;;;;;3.00;3.00;;;;;22.22;43.52;101822.13;4920612;28;45356;-54
2022/07/05 05:15:58;;;;;;;;;3.00;3.00;;;;;22.22;43.44;101822.13;4920300;28;45224;-52
2022/07/05 05:18:26;;;;;;;;;3.00;3.00;;;;;22.22;43.44;101830.06;4920215;28;46322;-52
2022/07/05 05:20:54;;;;;;;;;3.00;2.00;;;;;22.20;43.15;101824.03;4922107;28;45360;-51
2022/07/05 05:23:19;;;;;;;;;4.25;2.25;;;;;22.19;43.27;101824.94;4922865;28;45332;-50
2022/07/05 05:25:44;;;;;;;;;2.75;2.75;;;;;22.18;43.57;101825.88;4920027;28;45374;-51
2022/07/05 05:28:10;;;;;;;;;3.25;3.00;;;;;22.16;43.56;101827.72;4920754;28;45323;-51
2022/07/05 05:30:35;;;;;;;;;7.50;6.00;;;;;22.16;43.62;101827.72;4920383;28;45406;-57
2022/07/05 05:33:00;;;;;;;;;13.75;11.00;;;;;22.15;43.83;101830.44;4920082;28;45425;-53
2022/07/05 05:35:26;;;;;;;;;11.00;9.75;;;;;22.15;43.84;101830.44;4920900;28;45499;-57
2022/07/05 05:37:53;;;;;;;;;7.00;7.00;;;;;22.13;43.78;101833.13;4919224;28;46429;-54
2022/07/05 05:40:21;;;;;;;;;3.50;3.50;;;;;22.14;43.88;101828.72;4920114;28;45395;-53
2022/07/05 05:42:47;;;;;;;;;4.25;3.75;;;;;22.12;43.71;101835.84;4919980;28;45302;-53
2022/07/05 05:45:13;;;;;;;;;3.00;2.00;;;;;22.12;43.72;101836.69;4919724;28;45295;-47
2022/07/05 05:47:53;;;;;;;;;3.00;3.00;;;;;22.11;43.95;101840.25;4920867;28;46189;-50
2022/07/05 05:50:31;;;;;;;;;3.00;3.00;;;;;22.12;43.91;101849.91;4921444;28;45693;-52
2022/07/05 05:52:57;;;;;;;;;4.75;4.00;;;;;22.13;44.03;101845.50;4932246;28;45443;-58
2022/07/05 05:55:23;;;;;;;;;4.00;4.00;;;;;22.15;44.15;101854.22;4933107;28;44843;-51
2022/07/05 05:57:49;;;;;;;;;4.00;3.00;;;;;22.14;44.00;101857.78;4934437;28;46068;-53
2022/07/05 06:00:15;;;;;;;;;3.50;3.00;;;;;22.14;44.02;101860.41;4927523;28;45276;-48
2022/07/05 06:02:41;;;;;;;;;3.75;3.75;;;;;22.12;43.87;101860.47;4921661;28;45334;-52
2022/07/05 06:05:08;;;;;;;;;3.75;3.00;;;;;22.12;44.10;101860.47;4933964;28;45269;-46
2022/07/05 06:07:50;;;;;;;;;4.00;4.00;;;;;22.11;44.19;101853.47;4927245;28;46826;-48
2022/07/05 06:10:18;;;;;;;;;3.50;3.00;;;;;22.12;44.11;101856.97;4930569;28;45508;-53
2022/07/05 06:12:43;;;;;;;;;6.50;4.50;;;;;22.12;44.09;101859.63;4927364;28;45303;-45
2022/07/05 06:15:09;;;;;;;;;3.25;3.25;;;;;22.12;44.45;101851.69;4910311;28;45313;-49
2022/07/05 06:17:38;;;;;;;;;7.75;4.50;;;;;22.12;44.31;101852.53;4926378;28;46736;-53
2022/07/05 06:20:08;;;;;;;;;4.50;3.25;;;;;22.12;44.35;101857.81;4936779;28;45220;-49
2022/07/05 06:22:34;;;;;;;;;4.25;4.25;;;;;22.14;44.16;101853.34;4935792;28;44723;-50
2022/07/05 06:24:59;;;;;;;;;4.00;4.00;;;;;22.16;44.28;101854.13;4920169;28;45276;-52
2022/07/05 06:27:24;;;;;;;;;4.75;4.00;;;;;22.18;44.26;101860.19;4918757;28;45263;-54
2022/07/05 06:29:50;;;;;;;;;8.00;5.50;;;;;22.20;44.27;101861.00;4918483;28;45331;-53
2022/07/05 06:32:15;;;;;;;;;7.50;5.00;;;;;22.24;44.08;101854.63;4901801;28;45344;-53
2022/07/05 06:34:40;;;;;;;;;9.50;4.00;;;;;22.27;44.13;101855.41;4919324;28;45442;-53
2022/07/05 06:37:06;;;;;;;;;5.75;5.00;;;;;22.28;44.15;101860.59;4917892;28;47171;-55
2022/07/05 06:39:31;;;;;;;;;4.00;4.00;;;;;22.31;44.07;101870.19;4918722;28;45687;-56
2022/07/05 06:41:56;;;;;;;;;4.25;4.25;;;;;22.30;44.45;101861.41;4919271;28;45713;-54
2022/07/05 06:44:21;;;;;;;;;5.00;5.00;;;;;22.33;43.87;101873.59;4919647;28;45859;-56
2022/07/05 06:46:47;;;;;;;;;5.00;4.00;;;;;22.34;44.05;101868.25;4918889;28;46457;-55
2022/07/05 06:49:12;;;;;;;;;4.75;4.75;;;;;22.35;44.03;101874.38;4918577;28;45375;-55
2022/07/05 06:51:37;;;;;;;;;5.00;5.00;;;;;22.36;44.03;101868.19;4919227;28;45311;-54
2022/07/05 06:54:03;;;;;;;;;5.75;5.75;;;;;22.37;43.93;101878.69;4918734;28;45857;-52
2022/07/05 06:56:28;;;;;;;;;6.00;5.00;;;;;22.38;44.27;101869.81;4918396;28;46282;-56
2022/07/05 06:58:53;;;;;;;;;4.25;4.25;;;;;22.39;43.87;101870.69;4919887;28;45423;-55
2022/07/05 07:01:19;;;;;;;;;8.33;5.00;;;;;22.40;44.07;101877.69;4920283;28;59552;-54
2022/07/05 07:03:44;;;;;;;;;8.00;5.00;;;;;22.40;43.53;101877.69;4918398;28;48730;-55
2022/07/05 07:06:09;;;;;;;;;7.00;6.00;;;;;22.41;44.11;101868.88;4918958;28;47055;-53
2022/07/05 07:11:18;;;;;;;;;6.00;5.00;;;;;22.44;43.99;101875.78;4918901;28;45411;-48
2022/07/05 07:13:44;;;;;;;;;5.25;4.25;;;;;22.45;43.92;101873.06;4918620;28;45533;-55
2022/07/05 07:16:09;;;;;;;;;6.25;5.25;;;;;22.47;43.85;101867.72;4918329;28;62248;-52
2022/07/05 07:18:35;;;;;;;;;5.50;5.50;;;;;22.48;43.88;101880.00;4918298;28;58320;-49
2022/07/05 07:21:01;;;;;;;;;6.50;4.00;;;;;22.49;43.75;101872.00;4926805;28;45342;-51
2022/07/05 07:23:26;;;;;;;;;5.00;5.00;;;;;22.50;43.73;101873.72;4934418;28;44883;-49
2022/07/05 07:25:51;;;;;;;;;7.25;5.75;;;;;22.50;43.67;101873.72;4931852;28;46570;-51
2022/07/05 07:28:17;;;;;;;;;5.25;5.25;;;;;22.52;43.18;101879.78;4931351;28;45253;-48
2022/07/05 07:30:42;;;;;;;;;7.75;6.25;;;;;22.54;43.92;101877.91;4925062;28;45326;-54
2022/07/05 07:33:07;;;;;;;;;6.00;5.25;;;;;22.57;43.78;101884.84;4919510;28;45488;-49
2022/07/05 07:35:33;;;;;;;;;6.25;4.50;;;;;22.58;43.56;101876.00;4923050;28;45194;-50
2022/07/05 07:37:58;;;;;;;;;5.50;5.50;;;;;22.59;43.59;101879.47;4929607;28;45364;-48
2022/07/05 07:40:23;;;;;;;;;6.50;5.50;;;;;22.61;43.65;101885.53;4921386;28;45344;-58
2022/07/05 07:42:49;;;;;;;;;6.00;6.00;;;;;22.62;43.63;101887.25;4918427;28;45348;-56
2022/07/05 07:45:14;;;;;;;;;7.25;5.00;;;;;22.62;43.70;101892.56;4918153;28;46798;-55
2022/07/05 07:47:39;;;;;;;;;7.25;7.25;;;;;22.63;43.96;101883.69;4918493;28;45280;-55
2022/07/05 07:50:06;;;;;;;;;9.50;6.50;;;;;22.64;43.70;101890.69;4917995;28;45379;-57
2022/07/05 07:52:33;;;;;;;;;5.75;5.00;;;;;22.64;43.79;101893.34;4918426;28;46107;-57
2022/07/05 07:54:58;;;;;;;;;5.75;5.75;;;;;22.67;43.78;101891.41;4921314;28;46326;-49
2022/07/05 07:57:24;;;;;;;;;10.00;7.00;;;;;22.68;43.55;101898.41;4921338;28;45387;-50
2022/07/05 07:59:49;;;;;;;;;6.75;6.00;;;;;22.68;43.49;101892.25;4925913;28;45443;-52
2022/07/05 08:02:15;;;;;;;;;5.50;5.25;;;;;22.71;43.57;101894.75;4924473;28;45521;-53
2022/07/05 08:04:40;;;;;;;;;8.50;6.00;;;;;22.72;43.51;101896.47;4921548;28;46214;-48
2022/07/05 08:07:05;;;;;;;;;6.25;6.25;;;;;22.73;43.69;101894.66;4918682;28;45373;-55
2022/07/05 08:09:31;;;;;;;;;7.50;5.50;;;;;22.73;43.48;101892.00;4922312;28;45466;-51
2022/07/05 08:11:56;;;;;;;;;6.50;6.50;;;;;22.74;43.32;101891.09;4917196;28;45360;-50
2022/07/05 08:14:22;;;;;;;;;8.00;5.25;;;;;22.74;43.36;101889.31;4937149;28;44929;-51
2022/07/05 08:16:48;;;;;;;;;7.50;6.00;;;;;22.76;43.51;101889.22;4939841;28;44698;-51
2022/07/05 08:21:58;;;;;;;;;7.00;5.75;;;;;22.79;43.29;101883.81;4929284;28;45328;-55
2022/07/05 08:24:23;;;;;;;;;8.75;6.75;;;;;22.80;43.46;101886.38;4926471;28;46247;-51
2022/07/05 08:26:48;;;;;;;;;8.00;6.25;;;;;22.81;43.04;101887.25;4924194;28;45233;-53
2022/07/05 08:29:14;;;;;;;;;6.00;5.00;;;;;22.81;43.01;101882.78;4924174;28;45437;-51
2022/07/05 08:31:45;;;;;;;;;6.50;6.00;;;;;22.82;43.26;101884.50;4924440;28;45480;-52
2022/07/05 08:34:12;;;;;;;;;4.00;4.00;;;;;22.82;43.30;101878.38;4921200;28;46870;-56
2022/07/05 13:34:34;;;;;;;;;6.75;4.25;;;;;23.90;38.12;101797.91;5385055;23;47531;-46
2022/07/05 13:37:01;;;;;;;;;6.75;4.50;;;;;23.90;38.32;101798.78;4919841;28;45334;-49
2022/07/05 13:39:27;;;;;;;;;5.00;4.00;;;;;23.91;38.57;101799.63;4918205;28;47434;-44
2022/07/05 13:41:54;;;;;;;;;5.00;3.25;;;;;23.90;38.45;101801.44;4919554;28;45371;-53
2022/07/05 13:44:19;;;;;;;;;4.00;3.00;;;;;23.90;38.12;101814.69;4919841;28;45481;-47
2022/07/05 13:46:45;;;;;;;;;3.75;3.25;;;;;23.91;38.07;101804.94;4919531;28;45346;-47
2022/07/05 13:49:10;;;;;;;;;3.00;3.00;;;;;23.92;38.47;101804.00;4919746;28;45689;-50
2022/07/05 13:51:36;;;;;;;;;3.75;2.50;;;;;23.93;38.05;101808.34;4919498;28;45322;-47
2022/07/05 13:54:02;;;;;;;;;6.25;4.00;;;;;23.92;38.01;101802.19;4919369;28;45520;-51
2022/07/05 13:56:27;;;;;;;;;4.25;3.00;;;;;23.93;38.10;101803.91;4919738;28;45387;-47
2022/07/05 13:58:54;;;;;;;;;3.00;3.00;;;;;23.93;37.98;101797.75;4919040;28;46092;-50
2022/07/05 14:01:24;;;;;;;;;3.00;2.00;;;;;23.94;37.76;101799.47;4919420;28;45830;-45
2022/07/05 14:03:49;;;;;;;;;4.00;4.00;;;;;23.96;37.81;101796.75;4919388;28;45235;-51
2022/07/05 14:06:15;;;;;;;;;3.00;3.00;;;;;23.96;38.04;101807.34;4919565;28;45546;-52
2022/07/05 14:08:42;;;;;;;;;4.00;3.00;;;;;23.96;37.35;101808.22;4919749;28;46337;-50
2022/07/05 14:11:09;;;;;;;;;4.00;4.00;;;;;23.97;37.73;101803.78;4919690;28;46135;-53
2022/07/05 14:13:35;;;;;;;;;4.00;4.00;;;;;23.97;37.61;101795.81;4919290;28;45411;-52
2022/07/05 14:16:00;;;;;;;;;6.50;3.50;;;;;23.97;37.53;101803.78;4919163;28;45444;-53
2022/07/05 14:18:26;;;;;;;;;2.00;2.00;;;;;23.97;37.57;101799.34;4919176;28;46009;-49
2022/07/05 14:20:52;;;;;;;;;4.00;4.00;;;;;23.98;37.09;101794.91;4918686;28;50470;-50
2022/07/05 14:23:17;;;;;;;;;3.00;3.00;;;;;23.99;37.29;101792.16;4919283;28;45393;-50
2022/07/05 14:25:43;;;;;;;;;3.75;3.50;;;;;23.99;36.96;101789.50;4919191;28;45323;-47
2022/07/05 14:28:09;;;;;;;;;2.00;2.00;;;;;23.99;36.88;101786.84;4919282;28;45981;-54
2022/07/05 14:30:39;;;;;;;;;2.75;2.75;;;;;23.98;36.67;101790.44;4918913;28;45849;-52
2022/07/05 14:33:05;;;;;;;;;3.50;3.00;;;;;23.98;36.50;101785.13;4919016;28;45376;-49
2022/07/05 14:35:32;;;;;;;;;3.75;3.00;;;;;23.99;36.54;101786.84;4918837;28;45476;-55
2022/07/05 14:37:58;;;;;;;;;3.50;3.50;;;;;24.00;36.68;101793.88;4918564;28;45342;-55
2022/07/05 14:40:24;;;;;;;;;4.00;3.00;;;;;24.01;36.37;101784.16;4918723;28;45768;-50
2022/07/05 14:42:54;;;;;;;;;3.00;3.00;;;;;24.02;36.49;101784.03;4918777;28;45366;-56
2022/07/05 14:45:20;;;;;;;;;3.00;3.00;;;;;24.02;36.98;101776.09;4919023;28;45619;-56
2022/07/05 14:47:45;;;;;;;;;2.25;2.25;;;;;24.03;36.43;101776.97;4918432;28;46353;-51
2022/07/05 14:50:11;;;;;;;;;5.00;3.00;;;;;24.03;36.49;101776.97;4919118;28;45374;-52
2022/07/05 14:52:37;;;;;;;;;4.00;4.00;;;;;24.03;36.70;101777.81;4919228;28;45416;-55
2022/07/05 14:55:02;;;;;;;;;3.50;3.00;;;;;24.04;36.17;101778.66;4918744;28;45678;-55
2022/07/05 14:57:28;;;;;;;;;3.00;2.00;;;;;24.04;36.37;101783.94;4918472;28;46081;-49
2022/07/05 14:59:53;;;;;;;;;5.25;3.00;;;;;24.05;36.45;101781.22;4918294;28;45377;-53
2022/07/05 15:02:18;;;;;;;;;3.00;3.00;;;;;24.06;36.21;101772.34;4918716;28;45302;-48
2022/07/05 15:04:44;;;;;;;;;4.00;4.00;;;;;24.07;36.28;101775.84;4918084;28;49555;-52
2022/07/05 15:07:09;;;;;;;;;4.00;3.50;;;;;24.06;35.92;101772.34;4918671;28;46174;-56
2022/07/05 15:09:34;;;;;;;;;3.50;3.50;;;;;24.08;35.98;101775.78;4918494;28;45202;-51
2022/07/05 15:12:00;;;;;;;;;4.75;4.00;;;;;24.07;36.30;101768.78;4918377;28;45331;-45
2022/07/05 15:14:28;;;;;;;;;4.50;3.25;;;;;24.07;36.25;101768.78;4918698;28;45260;-45
2022/07/05 15:16:54;;;;;;;;;2.50;2.50;;;;;24.07;36.36;101767.91;4917664;28;45428;-45
2022/07/05 15:19:20;;;;;;;;;3.00;2.75;;;;;24.07;36.30;101762.59;4917892;28;45303;-43
2022/07/05 15:21:46;;;;;;;;;6.00;6.00;;;;;24.07;35.88;101759.94;4918246;28;45359;-43
2022/07/05 15:24:11;;;;;;;;;3.00;3.00;;;;;24.07;36.27;101762.59;4918814;28;45855;-47
2022/07/05 15:26:37;;;;;;;;;3.00;3.00;;;;;24.07;35.87;101746.72;4917237;28;47320;-46
2022/07/05 15:29:04;;;;;;;;;3.00;3.00;;;;;24.06;36.18;101755.59;4932813;28;46045;-48
2022/07/05 15:31:31;;;;;;;;;3.75;3.75;;;;;24.06;36.14;101761.75;4917105;28;45393;-45
2022/07/05 15:33:57;;;;;;;;;3.00;3.00;;;;;24.05;35.93;101754.75;4918287;28;45496;-46
2022/07/05 15:36:22;;;;;;;;;5.00;5.00;;;;;24.06;35.76;101760.88;4900823;28;45569;-43
2022/07/05 15:38:48;;;;;;;;;3.25;2.50;;;;;24.07;35.71;101760.81;4917820;28;45413;-47
2022/07/05 15:41:13;;;;;;;;;2.25;2.25;;;;;24.07;35.65;101755.53;4918073;28;45414;-43
2022/07/05 15:43:38;;;;;;;;;6.00;5.00;;;;;24.07;35.94;101747.59;4918510;28;45275;-46
2022/07/05 15:46:04;;;;;;;;;6.00;3.00;;;;;24.08;35.65;101748.41;4916926;28;64635;-44
2022/07/05 15:48:29;;;;;;;;;4.00;4.00;;;;;24.09;35.27;101758.91;4917939;28;45349;-45
2022/07/05 15:50:54;;;;;;;;;4.00;4.00;;;;;24.08;35.72;101754.59;4917642;28;45314;-46
2022/07/05 15:53:20;;;;;;;;;3.00;3.00;;;;;24.11;35.51;101752.69;4918175;28;45559;-46
2022/07/05 15:55:45;;;;;;;;;5.00;4.00;;;;;24.09;35.13;101744.84;4917606;28;45357;-48
2022/07/05 15:58:10;;;;;;;;;3.33;3.33;;;;;24.11;34.87;101752.69;4917462;28;59754;-45
2022/07/05 16:00:35;;;;;;;;;3.25;3.00;;;;;24.12;35.51;101751.75;4917917;28;45299;-51
2022/07/05 16:03:01;;;;;;;;;3.75;3.00;;;;;24.13;35.06;101750.81;4917809;28;45326;-46
2022/07/05 16:05:26;;;;;;;;;3.00;3.00;;;;;24.14;35.28;101750.75;4917673;28;46349;-43
2022/07/05 16:07:51;;;;;;;;;3.75;3.00;;;;;24.15;35.21;101749.78;4917410;28;51993;-43
2022/07/05 16:10:17;;;;;;;;;3.50;3.50;;;;;24.15;35.43;101743.63;4932636;28;45481;-43
2022/07/05 16:12:42;;;;;;;;;3.00;3.00;;;;;24.14;35.48;101734.84;4917788;28;45498;-45
2022/07/05 16:15:09;;;;;;;;;3.00;3.00;;;;;24.15;35.41;101751.59;4917939;28;46142;-51
2022/07/05 16:17:34;;;;;;;;;3.00;3.00;;;;;24.14;34.98;101745.44;4917833;28;45228;-55
2022/07/05 16:19:59;;;;;;;;;4.75;3.50;;;;;24.15;35.15;101744.47;4917589;28;45434;-51
2022/07/05 16:22:25;;;;;;;;;3.50;3.50;;;;;24.15;34.98;101744.47;4917826;28;45299;-54
2022/07/05 16:24:50;;;;;;;;;3.00;3.00;;;;;24.17;35.05;101739.13;4917219;28;46157;-52
2022/07/05 16:27:16;;;;;;;;;3.00;3.00;;;;;24.18;35.04;101746.13;4917424;28;45175;-49